createdAt,value
2018-08-30T00:02:48.942Z,17.90
2018-08-30T00:07:50.780Z,17.80
2018-08-30T00:12:46.678Z,17.70
2018-08-30T00:17:41.010Z,17.60
2018-08-30T00:22:35.488Z,17.50
2018-08-30T00:27:29.756Z,17.50
2018-08-30T00:32:24.172Z,17.40
2018-08-30T00:37:18.348Z,17.40
2018-08-30T00:42:13.620Z,17.30
2018-08-30T00:47:08.331Z,17.20
2018-08-30T00:52:04.611Z,17.10
2018-08-30T00:56:58.901Z,17.00
2018-08-30T01:01:53.475Z,17.00
2018-08-30T01:06:47.916Z,17.00
2018-08-30T01:11:42.595Z,17.00
2018-08-30T01:16:37.264Z,16.90
2018-08-30T01:21:31.913Z,16.90
2018-08-30T01:26:26.301Z,16.90
2018-08-30T01:31:20.863Z,16.80
2018-08-30T01:36:15.197Z,16.80
2018-08-30T01:41:09.559Z,16.80
2018-08-30T01:46:04.414Z,16.80
2018-08-30T01:50:59.381Z,16.70
2018-08-30T01:55:53.821Z,16.70
2018-08-30T02:00:48.440Z,16.60
2018-08-30T02:05:42.856Z,16.60
2018-08-30T02:10:37.256Z,16.50
2018-08-30T02:15:31.655Z,16.50
2018-08-30T02:20:26.360Z,16.60
2018-08-30T02:25:20.813Z,16.60
2018-08-30T02:30:15.079Z,16.60
2018-08-30T02:35:09.589Z,16.60
2018-08-30T02:40:05.117Z,16.70
2018-08-30T02:44:59.728Z,16.70
2018-08-30T02:49:56.637Z,16.70
2018-08-30T02:54:51.165Z,16.70
2018-08-30T02:59:45.570Z,16.70
2018-08-30T03:04:40.929Z,16.60
2018-08-30T03:09:38.205Z,16.60
2018-08-30T03:14:33.341Z,16.60
2018-08-30T03:19:28.166Z,16.60
2018-08-30T03:24:22.724Z,16.80
2018-08-30T03:29:17.380Z,17.00
2018-08-30T03:34:11.742Z,17.00
2018-08-30T03:39:07.892Z,17.10
2018-08-30T03:44:04.813Z,17.10
2018-08-30T03:48:59.684Z,17.20
2018-08-30T03:53:54.402Z,17.30
2018-08-30T03:58:48.859Z,17.40
2018-08-30T04:03:43.397Z,17.50
2018-08-30T04:08:38.164Z,17.60
2018-08-30T04:13:32.942Z,17.60
2018-08-30T04:18:27.553Z,17.70
2018-08-30T04:23:22.570Z,17.80
2018-08-30T04:28:18.511Z,17.80
2018-08-30T04:33:13.568Z,18.00
2018-08-30T04:38:08.299Z,18.00
2018-08-30T04:43:03.092Z,18.00
2018-08-30T04:47:57.732Z,18.00
2018-08-30T04:52:52.070Z,18.20
2018-08-30T04:57:46.888Z,18.30
2018-08-30T05:02:41.622Z,18.30
2018-08-30T05:07:41.563Z,18.50
2018-08-30T05:12:38.101Z,18.60
2018-08-30T05:17:32.490Z,18.60
2018-08-30T05:22:26.856Z,18.70
2018-08-30T05:27:24.434Z,18.90
2018-08-30T05:32:19.008Z,18.90
2018-08-30T05:37:15.090Z,19.00
2018-08-30T05:42:11.859Z,19.00
2018-08-30T05:47:09.531Z,19.00
2018-08-30T05:52:08.139Z,19.10
2018-08-30T05:57:05.305Z,19.20
2018-08-30T06:02:00.771Z,19.30
2018-08-30T06:06:59.004Z,19.50
2018-08-30T06:11:54.324Z,19.50
2018-08-30T06:16:49.052Z,19.50
2018-08-30T06:21:43.457Z,19.60
2018-08-30T06:26:38.296Z,19.80
2018-08-30T06:31:34.479Z,19.90
2018-08-30T06:36:29.360Z,19.90
2018-08-30T06:41:23.908Z,19.80
2018-08-30T06:46:19.617Z,19.90
2018-08-30T06:51:13.921Z,19.80
2018-08-30T06:56:10.723Z,19.80
2018-08-30T07:01:06.148Z,19.90
2018-08-30T07:06:00.828Z,19.90
2018-08-30T07:10:55.559Z,20.00
2018-08-30T07:15:49.734Z,20.20
2018-08-30T07:20:44.335Z,20.10
2018-08-30T07:25:39.100Z,20.10
2018-08-30T07:30:35.782Z,20.10
2018-08-30T07:35:30.136Z,20.10
2018-08-30T07:40:26.821Z,20.20
2018-08-30T07:45:21.473Z,20.50
2018-08-30T07:50:15.894Z,20.60
2018-08-30T07:55:10.612Z,21.40
2018-08-30T08:00:07.427Z,22.30
2018-08-30T08:05:02.782Z,22.60
2018-08-30T08:09:57.347Z,22.90
2018-08-30T08:14:52.029Z,23.00
2018-08-30T08:19:46.293Z,23.30
2018-08-30T08:24:40.913Z,24.20
2018-08-30T08:29:35.424Z,23.90
2018-08-30T08:34:30.261Z,22.70
2018-08-30T08:39:24.797Z,21.90
2018-08-30T08:44:19.556Z,21.30
2018-08-30T08:49:13.801Z,20.90
2018-08-30T08:54:09.393Z,20.70
2018-08-30T08:59:04.693Z,20.90
2018-08-30T09:03:59.115Z,21.00
2018-08-30T09:08:53.541Z,21.10
2018-08-30T09:13:48.896Z,21.10
2018-08-30T09:18:43.230Z,21.30
2018-08-30T09:23:37.873Z,21.20
2018-08-30T09:28:33.661Z,20.90
2018-08-30T09:33:28.589Z,20.70
2018-08-30T09:38:24.274Z,20.40
2018-08-30T09:43:19.052Z,20.50
2018-08-30T09:48:13.851Z,20.60
2018-08-30T09:53:08.476Z,20.70
2018-08-30T09:58:03.282Z,20.70
2018-08-30T10:02:58.414Z,20.50
2018-08-30T10:07:52.970Z,20.60
2018-08-30T10:12:47.604Z,20.60
2018-08-30T10:17:42.212Z,20.50
2018-08-30T10:22:37.327Z,20.20
2018-08-30T10:27:31.752Z,20.30
2018-08-30T10:32:26.273Z,20.40
2018-08-30T10:37:20.764Z,20.40
2018-08-30T10:42:15.632Z,20.20
2018-08-30T10:47:09.949Z,20.10
2018-08-30T10:52:21.013Z,20.10
2018-08-30T10:57:15.752Z,20.20
2018-08-30T11:02:10.868Z,20.40
2018-08-30T11:07:06.513Z,20.70
2018-08-30T11:12:01.888Z,21.10
2018-08-30T11:16:56.360Z,21.20
2018-08-30T11:21:50.908Z,21.10
2018-08-30T11:26:45.461Z,21.20
2018-08-30T11:31:40.523Z,21.20
2018-08-30T11:36:35.318Z,20.90
2018-08-30T11:41:31.523Z,20.70
2018-08-30T11:46:25.973Z,20.30
2018-08-30T11:51:21.864Z,20.10
2018-08-30T11:56:16.797Z,20.00
2018-08-30T12:01:11.736Z,19.90
2018-08-30T12:06:06.671Z,19.80
2018-08-30T12:11:03.260Z,19.80
2018-08-30T12:15:57.589Z,19.70
2018-08-30T12:20:52.457Z,19.30
2018-08-30T12:25:47.832Z,19.30
2018-08-30T12:30:42.199Z,19.50
2018-08-30T12:35:53.043Z,19.60
2018-08-30T12:40:47.902Z,19.90
2018-08-30T12:45:42.470Z,20.00
2018-08-30T12:50:37.265Z,20.20
2018-08-30T12:55:31.624Z,20.50
2018-08-30T13:00:26.791Z,21.00
2018-08-30T13:05:22.032Z,21.40
2018-08-30T13:10:17.351Z,21.60
2018-08-30T13:15:12.815Z,21.80
2018-08-30T13:20:08.189Z,21.80
2018-08-30T13:25:03.535Z,21.60
2018-08-30T13:29:58.679Z,21.40
2018-08-30T13:34:56.986Z,20.80
2018-08-30T13:39:51.567Z,20.40
2018-08-30T13:44:46.130Z,20.10
2018-08-30T13:49:40.778Z,20.10
2018-08-30T13:54:36.238Z,20.10
2018-08-30T13:59:31.261Z,20.10
2018-08-30T14:04:25.510Z,20.10
2018-08-30T14:09:21.108Z,20.00
2018-08-30T14:14:17.106Z,19.70
2018-08-30T14:19:19.170Z,19.70
2018-08-30T14:24:13.871Z,19.70
2018-08-30T14:29:08.933Z,19.40
2018-08-30T14:34:03.740Z,19.30
2018-08-30T14:38:58.104Z,19.20
2018-08-30T14:43:52.420Z,19.30
2018-08-30T14:48:47.354Z,19.40
2018-08-30T14:53:42.915Z,19.40
2018-08-30T14:58:37.632Z,19.40
2018-08-30T15:03:32.357Z,19.70
2018-08-30T15:08:27.914Z,19.70
2018-08-30T15:13:22.872Z,19.80
2018-08-30T15:18:17.691Z,19.70
2018-08-30T15:23:12.509Z,19.50
2018-08-30T15:28:11.614Z,19.60
2018-08-30T15:33:07.032Z,19.60
2018-08-30T15:38:02.750Z,19.60
2018-08-30T15:42:57.159Z,19.50
2018-08-30T15:47:51.760Z,19.50
2018-08-30T15:52:47.076Z,19.40
2018-08-30T15:57:42.496Z,19.30
2018-08-30T16:02:37.343Z,19.10
2018-08-30T16:07:31.822Z,19.10
2018-08-30T16:12:26.725Z,19.10
2018-08-30T16:17:21.852Z,19.10
2018-08-30T16:22:16.979Z,19.30
2018-08-30T16:27:11.533Z,19.40
2018-08-30T16:32:09.746Z,19.40
2018-08-30T16:37:05.526Z,19.40
2018-08-30T16:42:00.048Z,19.60
2018-08-30T16:46:54.443Z,19.60
2018-08-30T16:51:49.278Z,19.70
2018-08-30T16:56:43.804Z,19.70
2018-08-30T17:01:38.314Z,19.70
2018-08-30T17:06:32.733Z,19.60
2018-08-30T17:11:27.539Z,19.50
2018-08-30T17:16:22.209Z,19.40
2018-08-30T17:21:17.117Z,19.40
2018-08-30T17:26:11.872Z,19.40
2018-08-30T17:31:08.562Z,19.40
2018-08-30T17:36:03.349Z,19.30
2018-08-30T17:40:58.345Z,19.10
2018-08-30T17:45:52.941Z,19.10
2018-08-30T17:50:48.036Z,19.10
2018-08-30T17:55:42.530Z,19.10
2018-08-30T18:00:37.605Z,19.20
2018-08-30T18:05:32.467Z,19.20
2018-08-30T18:10:27.502Z,19.10
2018-08-30T18:15:22.090Z,19.00
2018-08-30T18:20:17.100Z,19.00
2018-08-30T18:25:15.238Z,19.00
2018-08-30T18:30:10.892Z,18.90
2018-08-30T18:35:05.668Z,18.80
2018-08-30T18:40:04.203Z,18.80
2018-08-30T18:44:58.789Z,18.70
2018-08-30T18:49:59.326Z,18.70
2018-08-30T18:54:53.839Z,18.60
2018-08-30T18:59:48.312Z,18.50
2018-08-30T19:04:42.797Z,18.40
2018-08-30T19:09:38.686Z,18.40
2018-08-30T19:14:36.105Z,18.40
2018-08-30T19:19:30.763Z,18.40
2018-08-30T19:24:30.283Z,18.40
2018-08-30T19:29:24.898Z,18.30
2018-08-30T19:34:21.588Z,18.30
2018-08-30T19:39:16.013Z,18.20
2018-08-30T19:44:11.388Z,18.20
2018-08-30T19:49:05.971Z,18.10
2018-08-30T19:54:00.441Z,18.00
2018-08-30T19:58:54.940Z,17.90
2018-08-30T20:03:50.319Z,17.90
2018-08-30T20:08:45.818Z,17.90
2018-08-30T20:13:41.381Z,17.90
2018-08-30T20:18:35.775Z,17.80
2018-08-30T20:23:30.642Z,17.70
2018-08-30T20:28:26.279Z,17.70
2018-08-30T20:33:21.252Z,17.70
2018-08-30T20:38:15.597Z,17.60
2018-08-30T20:43:11.176Z,17.50
2018-08-30T20:48:06.127Z,17.50
2018-08-30T20:53:00.636Z,17.50
2018-08-30T20:57:54.961Z,17.40
2018-08-30T21:02:49.247Z,17.30
2018-08-30T21:07:43.792Z,17.30
2018-08-30T21:12:38.361Z,17.30
2018-08-30T21:17:32.919Z,17.30
2018-08-30T21:22:27.960Z,17.20
2018-08-30T21:27:22.458Z,17.10
2018-08-30T21:32:17.102Z,17.10
2018-08-30T21:37:12.261Z,17.10
2018-08-30T21:42:09.437Z,17.10
2018-08-30T21:47:05.879Z,17.00
2018-08-30T21:52:01.912Z,17.10
2018-08-30T21:56:56.167Z,17.10
2018-08-30T22:01:50.812Z,17.10
2018-08-30T22:06:45.322Z,17.10
2018-08-30T22:11:40.038Z,17.10
2018-08-30T22:16:34.855Z,17.10
2018-08-30T22:21:29.287Z,17.00
2018-08-30T22:26:23.868Z,16.90
2018-08-30T22:31:20.082Z,16.70
2018-08-30T22:36:14.914Z,16.70
2018-08-30T22:41:10.354Z,16.60
2018-08-30T22:46:05.796Z,16.50
2018-08-30T22:51:00.593Z,16.40
2018-08-30T22:55:56.464Z,16.40
2018-08-30T23:00:51.011Z,16.20
2018-08-30T23:05:45.643Z,16.10
2018-08-30T23:10:41.012Z,16.10
2018-08-30T23:15:35.353Z,16.00
2018-08-30T23:20:30.353Z,15.90
2018-08-30T23:25:24.835Z,15.80
2018-08-30T23:30:19.768Z,15.80
2018-08-30T23:35:14.312Z,15.90
2018-08-30T23:40:11.209Z,16.10
2018-08-30T23:45:07.133Z,16.20
2018-08-30T23:50:03.089Z,16.30
2018-08-30T23:54:57.319Z,16.40
